sensor_id;sensor_type;location;lat;lon;timestamp;temperature;humidity
19555;DHT22;9924;50.828;6.440;2023-08-12T00:01:48;22.10;99.90
19555;DHT22;9924;50.828;6.440;2023-08-12T00:04:14;22.10;99.90
19555;DHT22;9924;50.828;6.440;2023-08-12T00:06:41;22.10;99.90
19555;DHT22;9924;50.828;6.440;2023-08-12T00:09:07;22.00;99.90
19555;DHT22;9924;50.828;6.440;2023-08-12T00:11:35;22.10;99.90
19555;DHT22;9924;50.828;6.440;2023-08-12T00:14:01;22.00;99.90
19555;DHT22;9924;50.828;6.440;2023-08-12T00:16:27;22.10;99.90
19555;DHT22;9924;50.828;6.440;2023-08-12T00:18:53;22.10;99.90
19555;DHT22;9924;50.828;6.440;2023-08-12T00:21:19;22.00;99.90
19555;DHT22;9924;50.828;6.440;2023-08-12T00:23:45;22.00;99.90
19555;DHT22;9924;50.828;6.440;2023-08-12T00:26:13;22.00;99.90
19555;DHT22;9924;50.828;6.440;2023-08-12T00:28:38;22.00;99.90
19555;DHT22;9924;50.828;6.440;2023-08-12T00:31:04;22.00;99.90
19555;DHT22;9924;50.828;6.440;2023-08-12T00:33:30;22.00;99.90
19555;DHT22;9924;50.828;6.440;2023-08-12T00:35:56;22.00;99.90
19555;DHT22;9924;50.828;6.440;2023-08-12T00:38:21;21.90;99.90
19555;DHT22;9924;50.828;6.440;2023-08-12T00:40:47;21.90;99.90
19555;DHT22;9924;50.828;6.440;2023-08-12T00:43:13;21.90;99.90
19555;DHT22;9924;50.828;6.440;2023-08-12T00:45:39;21.80;99.90
19555;DHT22;9924;50.828;6.440;2023-08-12T00:48:05;21.70;99.90
19555;DHT22;9924;50.828;6.440;2023-08-12T00:50:31;21.60;99.90
19555;DHT22;9924;50.828;6.440;2023-08-12T00:52:58;21.60;99.90
19555;DHT22;9924;50.828;6.440;2023-08-12T00:55:24;21.60;99.90
19555;DHT22;9924;50.828;6.440;2023-08-12T00:57:50;21.60;99.90
19555;DHT22;9924;50.828;6.440;2023-08-12T01:00:16;21.50;99.90
19555;DHT22;9924;50.828;6.440;2023-08-12T01:02:46;21.40;99.90
19555;DHT22;9924;50.828;6.440;2023-08-12T01:05:14;21.40;99.90
19555;DHT22;9924;50.828;6.440;2023-08-12T01:07:42;21.40;99.90
19555;DHT22;9924;50.828;6.440;2023-08-12T01:10:08;21.40;99.90
19555;DHT22;9924;50.828;6.440;2023-08-12T01:15:24;21.50;99.90
19555;DHT22;9924;50.828;6.440;2023-08-12T01:17:53;21.40;99.90
19555;DHT22;9924;50.828;6.440;2023-08-12T01:20:23;21.40;99.90
19555;DHT22;9924;50.828;6.440;2023-08-12T01:23:14;21.50;99.90
19555;DHT22;9924;50.828;6.440;2023-08-12T01:25:40;21.50;99.90
19555;DHT22;9924;50.828;6.440;2023-08-12T01:28:06;21.50;99.90
19555;DHT22;9924;50.828;6.440;2023-08-12T01:30:34;21.50;99.90
19555;DHT22;9924;50.828;6.440;2023-08-12T01:35:41;21.50;99.90
19555;DHT22;9924;50.828;6.440;2023-08-12T01:38:09;21.50;99.90
19555;DHT22;9924;50.828;6.440;2023-08-12T01:40:38;21.60;99.90
19555;DHT22;9924;50.828;6.440;2023-08-12T01:43:04;21.60;99.90
19555;DHT22;9924;50.828;6.440;2023-08-12T01:45:31;21.60;99.90
19555;DHT22;9924;50.828;6.440;2023-08-12T01:47:59;21.60;99.90
19555;DHT22;9924;50.828;6.440;2023-08-12T01:50:25;21.50;99.90
19555;DHT22;9924;50.828;6.440;2023-08-12T01:52:51;21.50;99.90
19555;DHT22;9924;50.828;6.440;2023-08-12T01:55:17;21.50;99.90
19555;DHT22;9924;50.828;6.440;2023-08-12T01:57:42;21.50;99.90
19555;DHT22;9924;50.828;6.440;2023-08-12T02:00:08;21.50;99.90
19555;DHT22;9924;50.828;6.440;2023-08-12T02:02:34;21.60;99.90
19555;DHT22;9924;50.828;6.440;2023-08-12T02:05:00;21.50;99.90
19555;DHT22;9924;50.828;6.440;2023-08-12T02:07:26;21.50;99.90
19555;DHT22;9924;50.828;6.440;2023-08-12T02:09:51;21.50;99.90
19555;DHT22;9924;50.828;6.440;2023-08-12T02:12:17;21.60;99.90
19555;DHT22;9924;50.828;6.440;2023-08-12T02:14:43;21.50;99.90
19555;DHT22;9924;50.828;6.440;2023-08-12T02:17:08;21.50;99.90
19555;DHT22;9924;50.828;6.440;2023-08-12T02:19:34;21.30;99.90
19555;DHT22;9924;50.828;6.440;2023-08-12T02:22:01;21.30;99.90
19555;DHT22;9924;50.828;6.440;2023-08-12T02:24:28;21.30;99.90
19555;DHT22;9924;50.828;6.440;2023-08-12T02:26:54;21.30;99.90
19555;DHT22;9924;50.828;6.440;2023-08-12T02:29:20;21.20;99.90
19555;DHT22;9924;50.828;6.440;2023-08-12T02:31:45;21.20;99.90
19555;DHT22;9924;50.828;6.440;2023-08-12T02:34:11;21.20;99.90
19555;DHT22;9924;50.828;6.440;2023-08-12T02:36:37;21.20;99.90
19555;DHT22;9924;50.828;6.440;2023-08-12T02:39:03;21.10;99.90
19555;DHT22;9924;50.828;6.440;2023-08-12T02:41:30;21.10;99.90
19555;DHT22;9924;50.828;6.440;2023-08-12T02:43:56;21.10;99.90
19555;DHT22;9924;50.828;6.440;2023-08-12T02:46:22;21.10;99.90
19555;DHT22;9924;50.828;6.440;2023-08-12T02:48:48;21.20;99.90
19555;DHT22;9924;50.828;6.440;2023-08-12T02:51:14;21.30;99.90
19555;DHT22;9924;50.828;6.440;2023-08-12T02:53:39;21.30;99.90
19555;DHT22;9924;50.828;6.440;2023-08-12T02:56:05;21.30;99.90
19555;DHT22;9924;50.828;6.440;2023-08-12T02:58:31;21.30;99.90
19555;DHT22;9924;50.828;6.440;2023-08-12T03:00:59;21.20;99.90
19555;DHT22;9924;50.828;6.440;2023-08-12T03:03:25;21.20;99.90
19555;DHT22;9924;50.828;6.440;2023-08-12T03:05:51;21.20;99.90
19555;DHT22;9924;50.828;6.440;2023-08-12T03:08:16;21.10;99.90
19555;DHT22;9924;50.828;6.440;2023-08-12T03:10:42;21.20;99.90
19555;DHT22;9924;50.828;6.440;2023-08-12T03:13:08;21.20;99.90
19555;DHT22;9924;50.828;6.440;2023-08-12T03:15:33;21.20;99.90
19555;DHT22;9924;50.828;6.440;2023-08-12T03:17:59;21.20;99.90
19555;DHT22;9924;50.828;6.440;2023-08-12T03:20:25;21.20;99.90
19555;DHT22;9924;50.828;6.440;2023-08-12T03:22:51;21.20;99.90
19555;DHT22;9924;50.828;6.440;2023-08-12T03:25:16;21.20;99.90
19555;DHT22;9924;50.828;6.440;2023-08-12T03:27:42;21.20;99.90
19555;DHT22;9924;50.828;6.440;2023-08-12T03:30:08;21.10;99.90
19555;DHT22;9924;50.828;6.440;2023-08-12T03:32:35;21.10;99.90
19555;DHT22;9924;50.828;6.440;2023-08-12T03:35:00;21.00;99.90
19555;DHT22;9924;50.828;6.440;2023-08-12T03:37:26;21.00;99.90
19555;DHT22;9924;50.828;6.440;2023-08-12T03:39:52;20.90;99.90
19555;DHT22;9924;50.828;6.440;2023-08-12T03:42:18;20.70;99.90
19555;DHT22;9924;50.828;6.440;2023-08-12T03:44:44;20.70;99.90
19555;DHT22;9924;50.828;6.440;2023-08-12T03:47:10;20.60;99.90
19555;DHT22;9924;50.828;6.440;2023-08-12T03:49:36;20.50;99.90
19555;DHT22;9924;50.828;6.440;2023-08-12T03:52:02;20.50;99.90
19555;DHT22;9924;50.828;6.440;2023-08-12T03:54:28;20.40;99.90
19555;DHT22;9924;50.828;6.440;2023-08-12T03:56:54;20.40;99.90
19555;DHT22;9924;50.828;6.440;2023-08-12T03:59:20;20.40;99.90
19555;DHT22;9924;50.828;6.440;2023-08-12T04:01:45;20.40;99.90
19555;DHT22;9924;50.828;6.440;2023-08-12T04:04:11;20.40;99.90
19555;DHT22;9924;50.828;6.440;2023-08-12T04:06:37;20.30;99.90
19555;DHT22;9924;50.828;6.440;2023-08-12T04:09:03;20.30;99.90
19555;DHT22;9924;50.828;6.440;2023-08-12T04:11:29;20.30;99.90
19555;DHT22;9924;50.828;6.440;2023-08-12T04:13:55;20.30;99.90
19555;DHT22;9924;50.828;6.440;2023-08-12T04:16:20;20.20;99.90
19555;DHT22;9924;50.828;6.440;2023-08-12T04:18:47;20.20;99.90
19555;DHT22;9924;50.828;6.440;2023-08-12T04:21:13;20.20;99.90
19555;DHT22;9924;50.828;6.440;2023-08-12T04:23:39;20.30;99.90
19555;DHT22;9924;50.828;6.440;2023-08-12T04:26:05;20.30;99.90
19555;DHT22;9924;50.828;6.440;2023-08-12T04:28:31;20.30;99.90
19555;DHT22;9924;50.828;6.440;2023-08-12T04:30:56;20.30;99.90
19555;DHT22;9924;50.828;6.440;2023-08-12T04:33:23;20.20;99.90
19555;DHT22;9924;50.828;6.440;2023-08-12T04:35:49;20.20;99.90
19555;DHT22;9924;50.828;6.440;2023-08-12T04:38:14;20.30;99.90
19555;DHT22;9924;50.828;6.440;2023-08-12T04:40:41;20.30;99.90
19555;DHT22;9924;50.828;6.440;2023-08-12T04:43:08;20.40;99.90
19555;DHT22;9924;50.828;6.440;2023-08-12T04:45:34;20.40;99.90
19555;DHT22;9924;50.828;6.440;2023-08-12T04:48:00;20.40;99.90
19555;DHT22;9924;50.828;6.440;2023-08-12T04:50:29;20.40;99.90
19555;DHT22;9924;50.828;6.440;2023-08-12T04:52:56;20.50;99.90
19555;DHT22;9924;50.828;6.440;2023-08-12T04:55:21;20.50;99.90
19555;DHT22;9924;50.828;6.440;2023-08-12T04:57:47;20.50;99.90
19555;DHT22;9924;50.828;6.440;2023-08-12T05:00:13;20.50;99.90
19555;DHT22;9924;50.828;6.440;2023-08-12T05:02:39;20.60;99.90
19555;DHT22;9924;50.828;6.440;2023-08-12T05:05:05;20.60;99.90
19555;DHT22;9924;50.828;6.440;2023-08-12T05:07:30;20.70;99.90
19555;DHT22;9924;50.828;6.440;2023-08-12T05:09:57;20.80;99.90
19555;DHT22;9924;50.828;6.440;2023-08-12T05:12:23;20.80;99.90
19555;DHT22;9924;50.828;6.440;2023-08-12T05:14:48;20.90;99.90
19555;DHT22;9924;50.828;6.440;2023-08-12T05:17:14;20.80;99.90
19555;DHT22;9924;50.828;6.440;2023-08-12T05:19:40;20.80;99.90
19555;DHT22;9924;50.828;6.440;2023-08-12T05:22:06;20.80;99.90
19555;DHT22;9924;50.828;6.440;2023-08-12T05:24:32;20.80;99.90
19555;DHT22;9924;50.828;6.440;2023-08-12T05:26:57;20.80;99.90
19555;DHT22;9924;50.828;6.440;2023-08-12T05:29:23;20.80;99.90
19555;DHT22;9924;50.828;6.440;2023-08-12T05:31:49;20.70;99.90
19555;DHT22;9924;50.828;6.440;2023-08-12T05:34:15;20.70;99.90
19555;DHT22;9924;50.828;6.440;2023-08-12T05:36:40;20.70;99.90
19555;DHT22;9924;50.828;6.440;2023-08-12T05:39:06;20.70;99.90
19555;DHT22;9924;50.828;6.440;2023-08-12T05:41:32;20.70;99.90
19555;DHT22;9924;50.828;6.440;2023-08-12T05:43:57;20.70;99.90
19555;DHT22;9924;50.828;6.440;2023-08-12T05:46:23;20.70;99.90
19555;DHT22;9924;50.828;6.440;2023-08-12T05:48:49;20.70;99.90
19555;DHT22;9924;50.828;6.440;2023-08-12T05:51:14;20.70;99.90
19555;DHT22;9924;50.828;6.440;2023-08-12T05:53:40;20.70;99.90
19555;DHT22;9924;50.828;6.440;2023-08-12T05:56:06;20.60;99.90
19555;DHT22;9924;50.828;6.440;2023-08-12T05:58:31;20.50;99.90
19555;DHT22;9924;50.828;6.440;2023-08-12T06:00:57;20.50;99.90
19555;DHT22;9924;50.828;6.440;2023-08-12T06:03:23;20.50;99.90
19555;DHT22;9924;50.828;6.440;2023-08-12T06:05:49;20.50;99.90
19555;DHT22;9924;50.828;6.440;2023-08-12T06:08:14;20.50;99.90
19555;DHT22;9924;50.828;6.440;2023-08-12T06:10:40;20.50;99.90
19555;DHT22;9924;50.828;6.440;2023-08-12T06:13:06;20.50;99.90
19555;DHT22;9924;50.828;6.440;2023-08-12T06:15:32;20.60;99.90
19555;DHT22;9924;50.828;6.440;2023-08-12T06:17:59;20.70;99.90
19555;DHT22;9924;50.828;6.440;2023-08-12T06:20:25;20.70;99.90
19555;DHT22;9924;50.828;6.440;2023-08-12T06:22:51;20.80;99.90
19555;DHT22;9924;50.828;6.440;2023-08-12T06:25:17;20.90;99.90
19555;DHT22;9924;50.828;6.440;2023-08-12T06:27:44;20.90;99.90
19555;DHT22;9924;50.828;6.440;2023-08-12T06:30:10;21.00;99.90
19555;DHT22;9924;50.828;6.440;2023-08-12T06:32:36;21.00;99.90
19555;DHT22;9924;50.828;6.440;2023-08-12T06:35:02;21.10;99.90
19555;DHT22;9924;50.828;6.440;2023-08-12T06:37:28;21.00;99.90
19555;DHT22;9924;50.828;6.440;2023-08-12T06:39:53;21.10;99.90
19555;DHT22;9924;50.828;6.440;2023-08-12T06:42:20;21.00;99.90
19555;DHT22;9924;50.828;6.440;2023-08-12T06:44:54;21.00;99.90
19555;DHT22;9924;50.828;6.440;2023-08-12T06:47:20;21.00;99.90
19555;DHT22;9924;50.828;6.440;2023-08-12T06:49:45;21.20;99.90
19555;DHT22;9924;50.828;6.440;2023-08-12T06:52:11;21.20;99.90
19555;DHT22;9924;50.828;6.440;2023-08-12T06:54:37;21.20;99.90
19555;DHT22;9924;50.828;6.440;2023-08-12T06:57:03;21.10;99.90
19555;DHT22;9924;50.828;6.440;2023-08-12T06:59:29;21.10;99.90
19555;DHT22;9924;50.828;6.440;2023-08-12T07:01:55;21.10;99.90
19555;DHT22;9924;50.828;6.440;2023-08-12T07:04:21;21.10;99.90
19555;DHT22;9924;50.828;6.440;2023-08-12T07:06:46;21.10;99.90
19555;DHT22;9924;50.828;6.440;2023-08-12T07:09:12;21.10;99.90
19555;DHT22;9924;50.828;6.440;2023-08-12T07:11:38;21.20;99.90
19555;DHT22;9924;50.828;6.440;2023-08-12T07:14:04;21.20;99.90
19555;DHT22;9924;50.828;6.440;2023-08-12T07:16:30;21.40;99.90
19555;DHT22;9924;50.828;6.440;2023-08-12T07:18:55;21.40;99.90
19555;DHT22;9924;50.828;6.440;2023-08-12T07:21:21;21.60;99.90
19555;DHT22;9924;50.828;6.440;2023-08-12T07:23:47;21.70;99.90
19555;DHT22;9924;50.828;6.440;2023-08-12T07:26:12;21.80;99.90
19555;DHT22;9924;50.828;6.440;2023-08-12T07:28:38;21.90;99.90
19555;DHT22;9924;50.828;6.440;2023-08-12T07:31:04;21.90;99.90
19555;DHT22;9924;50.828;6.440;2023-08-12T07:33:29;21.90;99.90
19555;DHT22;9924;50.828;6.440;2023-08-12T07:35:55;21.90;99.90
19555;DHT22;9924;50.828;6.440;2023-08-12T07:38:21;22.00;99.90
19555;DHT22;9924;50.828;6.440;2023-08-12T07:40:48;22.00;99.90
19555;DHT22;9924;50.828;6.440;2023-08-12T07:43:14;21.90;99.90
19555;DHT22;9924;50.828;6.440;2023-08-12T07:45:40;21.90;99.90
19555;DHT22;9924;50.828;6.440;2023-08-12T07:48:06;22.00;99.90
19555;DHT22;9924;50.828;6.440;2023-08-12T07:50:32;21.90;99.90
19555;DHT22;9924;50.828;6.440;2023-08-12T07:52:57;21.90;99.90
19555;DHT22;9924;50.828;6.440;2023-08-12T07:55:23;22.00;99.90
19555;DHT22;9924;50.828;6.440;2023-08-12T07:57:49;21.90;99.90
19555;DHT22;9924;50.828;6.440;2023-08-12T08:00:14;21.90;99.90
19555;DHT22;9924;50.828;6.440;2023-08-12T08:02:40;22.00;99.90
19555;DHT22;9924;50.828;6.440;2023-08-12T08:05:06;22.10;99.90
19555;DHT22;9924;50.828;6.440;2023-08-12T08:07:32;22.20;99.90
19555;DHT22;9924;50.828;6.440;2023-08-12T08:09:58;22.30;99.90
19555;DHT22;9924;50.828;6.440;2023-08-12T08:12:24;22.40;99.90
19555;DHT22;9924;50.828;6.440;2023-08-12T08:14:50;22.50;99.90
19555;DHT22;9924;50.828;6.440;2023-08-12T08:17:15;22.50;99.90
19555;DHT22;9924;50.828;6.440;2023-08-12T08:19:41;22.60;99.90
19555;DHT22;9924;50.828;6.440;2023-08-12T08:22:06;22.70;99.90
19555;DHT22;9924;50.828;6.440;2023-08-12T08:24:32;22.70;99.90
19555;DHT22;9924;50.828;6.440;2023-08-12T08:26:58;22.70;99.90
19555;DHT22;9924;50.828;6.440;2023-08-12T08:29:24;22.80;99.90
19555;DHT22;9924;50.828;6.440;2023-08-12T08:31:50;22.90;99.90
19555;DHT22;9924;50.828;6.440;2023-08-12T08:34:15;23.10;99.90
19555;DHT22;9924;50.828;6.440;2023-08-12T08:36:41;23.30;99.90
19555;DHT22;9924;50.828;6.440;2023-08-12T08:39:07;23.50;99.90
19555;DHT22;9924;50.828;6.440;2023-08-12T08:41:37;23.50;99.90
19555;DHT22;9924;50.828;6.440;2023-08-12T08:44:06;23.60;99.90
19555;DHT22;9924;50.828;6.440;2023-08-12T08:46:32;23.70;99.90
19555;DHT22;9924;50.828;6.440;2023-08-12T08:49:01;23.70;99.90
19555;DHT22;9924;50.828;6.440;2023-08-12T08:51:30;23.60;99.90
19555;DHT22;9924;50.828;6.440;2023-08-12T08:53:58;23.60;99.90
19555;DHT22;9924;50.828;6.440;2023-08-12T08:56:24;23.60;99.90
19555;DHT22;9924;50.828;6.440;2023-08-12T08:58:50;23.50;99.90
19555;DHT22;9924;50.828;6.440;2023-08-12T09:01:19;23.40;99.90
19555;DHT22;9924;50.828;6.440;2023-08-12T09:03:48;23.50;99.90
19555;DHT22;9924;50.828;6.440;2023-08-12T09:06:16;23.50;99.90
19555;DHT22;9924;50.828;6.440;2023-08-12T09:08:45;23.40;99.90
19555;DHT22;9924;50.828;6.440;2023-08-12T09:11:12;23.40;99.90
19555;DHT22;9924;50.828;6.440;2023-08-12T09:13:38;23.40;99.90
19555;DHT22;9924;50.828;6.440;2023-08-12T09:16:04;23.40;99.90
19555;DHT22;9924;50.828;6.440;2023-08-12T09:18:30;23.40;99.90
19555;DHT22;9924;50.828;6.440;2023-08-12T09:20:56;23.60;99.90
19555;DHT22;9924;50.828;6.440;2023-08-12T09:23:22;23.90;99.90
19555;DHT22;9924;50.828;6.440;2023-08-12T09:25:48;24.00;99.90
19555;DHT22;9924;50.828;6.440;2023-08-12T09:28:14;24.00;99.90
19555;DHT22;9924;50.828;6.440;2023-08-12T09:30:40;24.00;99.90
19555;DHT22;9924;50.828;6.440;2023-08-12T09:33:07;24.40;99.90
19555;DHT22;9924;50.828;6.440;2023-08-12T09:38:01;24.60;99.90
19555;DHT22;9924;50.828;6.440;2023-08-12T09:40:27;24.50;99.90
19555;DHT22;9924;50.828;6.440;2023-08-12T09:42:53;24.30;99.90
19555;DHT22;9924;50.828;6.440;2023-08-12T09:45:18;24.20;99.90
19555;DHT22;9924;50.828;6.440;2023-08-12T09:47:46;23.90;99.90
19555;DHT22;9924;50.828;6.440;2023-08-12T09:50:12;23.70;99.90
19555;DHT22;9924;50.828;6.440;2023-08-12T09:52:39;23.60;99.90
19555;DHT22;9924;50.828;6.440;2023-08-12T09:55:08;23.80;99.90
19555;DHT22;9924;50.828;6.440;2023-08-12T09:57:34;24.00;99.90
19555;DHT22;9924;50.828;6.440;2023-08-12T10:00:02;24.20;99.90
19555;DHT22;9924;50.828;6.440;2023-08-12T10:02:29;24.60;99.90
19555;DHT22;9924;50.828;6.440;2023-08-12T10:04:56;24.90;99.90
19555;DHT22;9924;50.828;6.440;2023-08-12T10:07:24;25.40;99.90
19555;DHT22;9924;50.828;6.440;2023-08-12T10:09:50;25.50;99.90
19555;DHT22;9924;50.828;6.440;2023-08-12T10:12:17;25.60;99.90
19555;DHT22;9924;50.828;6.440;2023-08-12T10:14:43;25.50;99.90
19555;DHT22;9924;50.828;6.440;2023-08-12T10:17:09;25.30;99.90
19555;DHT22;9924;50.828;6.440;2023-08-12T10:19:36;25.20;99.90
19555;DHT22;9924;50.828;6.440;2023-08-12T10:22:03;24.90;99.90
19555;DHT22;9924;50.828;6.440;2023-08-12T10:24:29;24.60;99.90
19555;DHT22;9924;50.828;6.440;2023-08-12T10:26:55;24.40;99.90
19555;DHT22;9924;50.828;6.440;2023-08-12T10:29:23;24.10;99.90
19555;DHT22;9924;50.828;6.440;2023-08-12T10:31:50;23.90;99.90
19555;DHT22;9924;50.828;6.440;2023-08-12T10:34:25;23.80;99.90
19555;DHT22;9924;50.828;6.440;2023-08-12T10:36:58;23.60;99.90
19555;DHT22;9924;50.828;6.440;2023-08-12T10:39:26;23.60;99.90
19555;DHT22;9924;50.828;6.440;2023-08-12T10:41:57;23.60;99.90
19555;DHT22;9924;50.828;6.440;2023-08-12T10:44:27;23.40;99.90
19555;DHT22;9924;50.828;6.440;2023-08-12T10:47:08;23.40;99.90
19555;DHT22;9924;50.828;6.440;2023-08-12T10:49:44;23.50;99.90
19555;DHT22;9924;50.828;6.440;2023-08-12T10:52:26;23.50;99.90
19555;DHT22;9924;50.828;6.440;2023-08-12T10:54:53;23.60;99.90
19555;DHT22;9924;50.828;6.440;2023-08-12T10:57:18;23.70;99.90
19555;DHT22;9924;50.828;6.440;2023-08-12T10:59:59;24.00;99.90
19555;DHT22;9924;50.828;6.440;2023-08-12T11:02:29;24.20;99.90
19555;DHT22;9924;50.828;6.440;2023-08-12T11:04:57;24.40;99.90
19555;DHT22;9924;50.828;6.440;2023-08-12T11:10:03;24.90;99.90
19555;DHT22;9924;50.828;6.440;2023-08-12T11:12:35;24.90;99.90
19555;DHT22;9924;50.828;6.440;2023-08-12T11:15:02;25.10;99.90
19555;DHT22;9924;50.828;6.440;2023-08-12T11:17:33;25.30;99.90
19555;DHT22;9924;50.828;6.440;2023-08-12T11:20:00;25.20;99.90
19555;DHT22;9924;50.828;6.440;2023-08-12T11:22:26;25.00;99.90
19555;DHT22;9924;50.828;6.440;2023-08-12T11:24:53;25.00;99.90
19555;DHT22;9924;50.828;6.440;2023-08-12T11:27:19;25.20;99.90
19555;DHT22;9924;50.828;6.440;2023-08-12T11:29:44;25.60;99.90
19555;DHT22;9924;50.828;6.440;2023-08-12T11:32:10;25.80;99.90
19555;DHT22;9924;50.828;6.440;2023-08-12T11:34:37;25.80;99.90
19555;DHT22;9924;50.828;6.440;2023-08-12T11:37:03;25.70;99.90
19555;DHT22;9924;50.828;6.440;2023-08-12T11:39:29;25.60;99.90
19555;DHT22;9924;50.828;6.440;2023-08-12T11:41:55;25.80;99.90
19555;DHT22;9924;50.828;6.440;2023-08-12T11:44:23;26.00;99.90
19555;DHT22;9924;50.828;6.440;2023-08-12T11:46:49;26.00;99.90
19555;DHT22;9924;50.828;6.440;2023-08-12T11:49:15;26.00;99.90
19555;DHT22;9924;50.828;6.440;2023-08-12T11:51:42;26.00;99.90
19555;DHT22;9924;50.828;6.440;2023-08-12T11:54:09;26.00;99.90
19555;DHT22;9924;50.828;6.440;2023-08-12T11:56:35;26.30;99.90
19555;DHT22;9924;50.828;6.440;2023-08-12T11:59:01;26.60;99.90
19555;DHT22;9924;50.828;6.440;2023-08-12T12:01:27;27.10;99.90
19555;DHT22;9924;50.828;6.440;2023-08-12T12:03:54;27.70;99.90
19555;DHT22;9924;50.828;6.440;2023-08-12T12:06:35;27.80;99.90
19555;DHT22;9924;50.828;6.440;2023-08-12T12:09:06;27.60;99.90
19555;DHT22;9924;50.828;6.440;2023-08-12T12:11:32;27.50;99.90
19555;DHT22;9924;50.828;6.440;2023-08-12T12:14:04;27.70;99.90
19555;DHT22;9924;50.828;6.440;2023-08-12T12:16:47;27.90;99.90
19555;DHT22;9924;50.828;6.440;2023-08-12T12:19:21;28.00;99.90
19555;DHT22;9924;50.828;6.440;2023-08-12T12:21:51;27.70;99.90
19555;DHT22;9924;50.828;6.440;2023-08-12T12:24:18;27.10;99.90
19555;DHT22;9924;50.828;6.440;2023-08-12T12:26:44;27.00;99.90
19555;DHT22;9924;50.828;6.440;2023-08-12T12:29:10;27.20;99.90
19555;DHT22;9924;50.828;6.440;2023-08-12T12:31:40;27.20;99.90
19555;DHT22;9924;50.828;6.440;2023-08-12T12:34:07;26.50;99.90
19555;DHT22;9924;50.828;6.440;2023-08-12T12:36:35;25.50;99.90
19555;DHT22;9924;50.828;6.440;2023-08-12T12:39:02;24.50;99.90
19555;DHT22;9924;50.828;6.440;2023-08-12T12:41:29;24.10;99.90
19555;DHT22;9924;50.828;6.440;2023-08-12T12:43:54;24.00;99.90
19555;DHT22;9924;50.828;6.440;2023-08-12T12:46:20;24.80;99.90
19555;DHT22;9924;50.828;6.440;2023-08-12T12:48:46;25.70;99.90
19555;DHT22;9924;50.828;6.440;2023-08-12T12:51:12;26.00;99.90
19555;DHT22;9924;50.828;6.440;2023-08-12T12:53:38;26.40;99.90
19555;DHT22;9924;50.828;6.440;2023-08-12T12:56:05;26.50;99.90
19555;DHT22;9924;50.828;6.440;2023-08-12T12:58:31;26.30;99.90
19555;DHT22;9924;50.828;6.440;2023-08-12T13:01:01;26.30;99.90
19555;DHT22;9924;50.828;6.440;2023-08-12T13:03:28;26.50;99.90
19555;DHT22;9924;50.828;6.440;2023-08-12T13:05:54;26.90;99.90
19555;DHT22;9924;50.828;6.440;2023-08-12T13:08:20;27.20;99.90
19555;DHT22;9924;50.828;6.440;2023-08-12T13:10:45;27.00;99.90
19555;DHT22;9924;50.828;6.440;2023-08-12T13:13:14;26.90;99.90
19555;DHT22;9924;50.828;6.440;2023-08-12T13:15:41;27.10;99.90
19555;DHT22;9924;50.828;6.440;2023-08-12T13:18:07;27.30;99.90
19555;DHT22;9924;50.828;6.440;2023-08-12T13:20:34;27.60;99.90
19555;DHT22;9924;50.828;6.440;2023-08-12T13:23:00;27.30;99.90
19555;DHT22;9924;50.828;6.440;2023-08-12T13:25:30;27.30;99.90
19555;DHT22;9924;50.828;6.440;2023-08-12T13:27:56;27.30;99.90
19555;DHT22;9924;50.828;6.440;2023-08-12T13:30:22;27.10;99.90
19555;DHT22;9924;50.828;6.440;2023-08-12T13:32:47;26.80;99.90
19555;DHT22;9924;50.828;6.440;2023-08-12T13:35:13;26.80;99.90
19555;DHT22;9924;50.828;6.440;2023-08-12T13:37:39;27.20;99.90
19555;DHT22;9924;50.828;6.440;2023-08-12T13:40:05;27.60;99.90
19555;DHT22;9924;50.828;6.440;2023-08-12T13:42:31;27.70;99.90
19555;DHT22;9924;50.828;6.440;2023-08-12T13:44:57;28.10;99.90
19555;DHT22;9924;50.828;6.440;2023-08-12T13:47:22;28.30;99.90
19555;DHT22;9924;50.828;6.440;2023-08-12T13:49:48;28.50;99.90
19555;DHT22;9924;50.828;6.440;2023-08-12T13:52:13;28.50;99.90
19555;DHT22;9924;50.828;6.440;2023-08-12T13:54:39;28.60;99.90
19555;DHT22;9924;50.828;6.440;2023-08-12T13:57:05;28.90;99.90
19555;DHT22;9924;50.828;6.440;2023-08-12T13:59:31;28.30;99.90
19555;DHT22;9924;50.828;6.440;2023-08-12T14:01:56;27.80;99.90
19555;DHT22;9924;50.828;6.440;2023-08-12T14:04:22;27.40;99.90
19555;DHT22;9924;50.828;6.440;2023-08-12T14:06:48;26.70;99.90
19555;DHT22;9924;50.828;6.440;2023-08-12T14:09:13;26.80;99.90
19555;DHT22;9924;50.828;6.440;2023-08-12T14:11:42;27.30;99.90
19555;DHT22;9924;50.828;6.440;2023-08-12T14:14:08;27.80;99.90
19555;DHT22;9924;50.828;6.440;2023-08-12T14:16:33;28.40;99.90
19555;DHT22;9924;50.828;6.440;2023-08-12T14:18:59;28.80;99.90
19555;DHT22;9924;50.828;6.440;2023-08-12T14:21:25;29.20;99.90
19555;DHT22;9924;50.828;6.440;2023-08-12T14:23:50;29.10;99.90
19555;DHT22;9924;50.828;6.440;2023-08-12T14:26:16;28.70;99.90
19555;DHT22;9924;50.828;6.440;2023-08-12T14:28:42;28.60;99.90
19555;DHT22;9924;50.828;6.440;2023-08-12T14:31:08;29.10;99.90
19555;DHT22;9924;50.828;6.440;2023-08-12T14:33:33;29.30;99.90
19555;DHT22;9924;50.828;6.440;2023-08-12T14:35:59;29.10;99.90
19555;DHT22;9924;50.828;6.440;2023-08-12T14:38:27;28.60;99.90
19555;DHT22;9924;50.828;6.440;2023-08-12T14:40:53;28.50;99.90
19555;DHT22;9924;50.828;6.440;2023-08-12T14:43:18;28.30;99.90
19555;DHT22;9924;50.828;6.440;2023-08-12T14:45:45;28.10;99.90
19555;DHT22;9924;50.828;6.440;2023-08-12T14:48:14;28.20;99.90
19555;DHT22;9924;50.828;6.440;2023-08-12T14:50:41;28.80;99.90
19555;DHT22;9924;50.828;6.440;2023-08-12T14:53:07;29.00;99.90
19555;DHT22;9924;50.828;6.440;2023-08-12T14:55:33;28.70;99.90
19555;DHT22;9924;50.828;6.440;2023-08-12T14:57:58;28.30;99.90
19555;DHT22;9924;50.828;6.440;2023-08-12T15:00:24;28.20;99.90
19555;DHT22;9924;50.828;6.440;2023-08-12T15:02:50;27.90;99.90
19555;DHT22;9924;50.828;6.440;2023-08-12T15:05:17;27.60;99.90
19555;DHT22;9924;50.828;6.440;2023-08-12T15:07:42;27.20;99.90
19555;DHT22;9924;50.828;6.440;2023-08-12T15:10:09;27.10;99.90
19555;DHT22;9924;50.828;6.440;2023-08-12T15:12:35;27.00;99.90
19555;DHT22;9924;50.828;6.440;2023-08-12T15:15:00;27.00;99.90
19555;DHT22;9924;50.828;6.440;2023-08-12T15:17:26;27.30;99.90
19555;DHT22;9924;50.828;6.440;2023-08-12T15:19:52;27.90;99.90
19555;DHT22;9924;50.828;6.440;2023-08-12T15:22:17;28.20;99.90
19555;DHT22;9924;50.828;6.440;2023-08-12T15:24:43;28.30;99.90
19555;DHT22;9924;50.828;6.440;2023-08-12T15:27:09;28.60;99.90
19555;DHT22;9924;50.828;6.440;2023-08-12T15:29:35;28.80;99.90
19555;DHT22;9924;50.828;6.440;2023-08-12T15:32:01;29.10;99.90
19555;DHT22;9924;50.828;6.440;2023-08-12T15:34:26;29.30;99.90
19555;DHT22;9924;50.828;6.440;2023-08-12T15:36:52;29.10;99.90
19555;DHT22;9924;50.828;6.440;2023-08-12T15:39:19;28.60;99.90
19555;DHT22;9924;50.828;6.440;2023-08-12T15:41:45;28.40;99.90
19555;DHT22;9924;50.828;6.440;2023-08-12T15:44:11;27.80;99.90
19555;DHT22;9924;50.828;6.440;2023-08-12T15:46:38;27.10;99.90
19555;DHT22;9924;50.828;6.440;2023-08-12T15:49:04;26.60;99.90
19555;DHT22;9924;50.828;6.440;2023-08-12T15:51:32;26.60;99.90